Aviation Digital Data Service (ADDS)

Output produced by METARs form (2052 UTC 01 March 2015)
found at http://aviationweather.gov/adds/metars/
 
KJXN 011740Z 0118/0218 20006KT P6SM OVC020 
     FM020700 28010KT P6SM BKN035